Aérodrome :
LOGIN :

S'inscrire | Disclaimer

   EN    FR    IT 

 










Légende :    VFR   VFR Marginal   IFR   IFR Intensif   IFR Très Intensif
Visi : 
Plafond : 
>= 8 km
>= 3000ft
5 à 8 km
1000 à 3000 ft
1500m à 5 km
500 à 1000 ft
800 à 1500m
200 à 500 ft
< 800m
< 200 ft
Symboles :   Orages  Brouillard  Fortes neiges  Fortes précipitations  Vent > 20 kt
SIGMETs :   Divers  Orages  Givrage  Turbulence  Onde Orograph.  Cendres Volcan.






- Altitude de l'aérodrome : 1302 ft
- Code IATA : GNB


LFLS - Grenoble / St. Geoirs

DERNIER METAR :
  • 110200Z AUTO 07005KT CAVOK M02/M03 Q1019

METARs EXPIRÉS :
  • 110130Z AUTO 09005KT 9000 NSC M02/M03 Q1019
  • 110100Z AUTO VRB02KT 8000 NSC M03/M03 Q1020
  • 110030Z AUTO 29003KT 260V350 CAVOK M02/M03 Q1020
  • 110000Z AUTO 07002KT CAVOK M01/M03 Q1020
  • 102330Z AUTO 08003KT CAVOK M01/M02 Q1021

TAF AMD TAF LFLS
Valide du 10 à 16h jusqu'au 11 à 15h UTC


101604Z 1016/1115 36005KT CAVOK
BECMG 1022/1024 09006KT
BECMG 1110/1112 VRB03KT -RA BKN040
ATIS : +33 4 76 65 55 89



MET'MAP, la Météo Aéronautique d'un coup d'oeil ! - Copyright ORBIFLY Décembre 2007 - Disclaimer

ORBIFLY MET'MAP TEAM :

Programmation & Développement : Alexandra Zaïnal
Sur une idée originale de : Baudouin d'Aumeries
Assistance à la programmation : Marc-Olivier Méhu
Soutien technique & logistique : Manuel Goepfert

Contact : metmap@orbifly.com




SOURCES & CREDITS :

   NOAA